sensor_id;sensor_type;location;lat;lon;timestamp;temperature;humidity
22738;DHT22;11536;50.860;4.286;2024-03-02T00:00:14;8.10;99.90
22738;DHT22;11536;50.860;4.286;2024-03-02T00:02:44;8.10;99.90
22738;DHT22;11536;50.860;4.286;2024-03-02T00:05:11;8.10;99.90
22738;DHT22;11536;50.860;4.286;2024-03-02T00:07:39;8.00;99.90
22738;DHT22;11536;50.860;4.286;2024-03-02T00:10:09;8.00;99.90
22738;DHT22;11536;50.860;4.286;2024-03-02T00:12:40;8.00;99.90
22738;DHT22;11536;50.860;4.286;2024-03-02T00:18:03;8.00;99.90
22738;DHT22;11536;50.860;4.286;2024-03-02T00:20:30;8.00;99.90
22738;DHT22;11536;50.860;4.286;2024-03-02T00:23:04;7.90;99.90
22738;DHT22;11536;50.860;4.286;2024-03-02T00:28:02;7.90;99.90
22738;DHT22;11536;50.860;4.286;2024-03-02T00:30:55;7.90;99.90
22738;DHT22;11536;50.860;4.286;2024-03-02T00:33:21;7.90;99.90
22738;DHT22;11536;50.860;4.286;2024-03-02T00:35:49;7.90;99.90
22738;DHT22;11536;50.860;4.286;2024-03-02T00:38:14;7.90;99.90
22738;DHT22;11536;50.860;4.286;2024-03-02T00:40:44;7.90;99.90
22738;DHT22;11536;50.860;4.286;2024-03-02T00:43:37;7.90;99.90
22738;DHT22;11536;50.860;4.286;2024-03-02T00:46:04;7.90;99.90
22738;DHT22;11536;50.860;4.286;2024-03-02T00:48:30;7.90;99.90
22738;DHT22;11536;50.860;4.286;2024-03-02T00:51:03;7.90;99.90
22738;DHT22;11536;50.860;4.286;2024-03-02T00:53:30;7.90;99.90
22738;DHT22;11536;50.860;4.286;2024-03-02T00:55:56;7.80;99.90
22738;DHT22;11536;50.860;4.286;2024-03-02T00:58:22;7.80;99.90
22738;DHT22;11536;50.860;4.286;2024-03-02T01:00:47;7.90;99.90
22738;DHT22;11536;50.860;4.286;2024-03-02T01:03:13;7.80;99.90
22738;DHT22;11536;50.860;4.286;2024-03-02T01:05:42;7.90;99.90
22738;DHT22;11536;50.860;4.286;2024-03-02T01:08:09;7.90;99.90
22738;DHT22;11536;50.860;4.286;2024-03-02T01:10:35;7.90;99.90
22738;DHT22;11536;50.860;4.286;2024-03-02T01:13:01;7.90;99.90
22738;DHT22;11536;50.860;4.286;2024-03-02T01:15:26;7.90;99.90
22738;DHT22;11536;50.860;4.286;2024-03-02T01:17:52;7.90;99.90
22738;DHT22;11536;50.860;4.286;2024-03-02T01:20:18;7.90;99.90
22738;DHT22;11536;50.860;4.286;2024-03-02T01:22:43;7.90;99.90
22738;DHT22;11536;50.860;4.286;2024-03-02T01:25:09;7.90;99.90
22738;DHT22;11536;50.860;4.286;2024-03-02T01:27:35;7.90;99.90
22738;DHT22;11536;50.860;4.286;2024-03-02T01:30:01;7.90;99.90
22738;DHT22;11536;50.860;4.286;2024-03-02T01:32:26;7.90;99.90
22738;DHT22;11536;50.860;4.286;2024-03-02T01:34:52;7.90;99.90
22738;DHT22;11536;50.860;4.286;2024-03-02T01:37:18;7.90;99.90
22738;DHT22;11536;50.860;4.286;2024-03-02T01:39:43;7.90;99.90
22738;DHT22;11536;50.860;4.286;2024-03-02T01:42:09;7.90;99.90
22738;DHT22;11536;50.860;4.286;2024-03-02T01:44:36;7.90;99.90
22738;DHT22;11536;50.860;4.286;2024-03-02T01:47:01;7.90;99.90
22738;DHT22;11536;50.860;4.286;2024-03-02T01:49:27;7.90;99.90
22738;DHT22;11536;50.860;4.286;2024-03-02T01:51:53;7.90;99.90
22738;DHT22;11536;50.860;4.286;2024-03-02T01:54:19;7.90;99.90
22738;DHT22;11536;50.860;4.286;2024-03-02T01:56:44;7.90;99.90
22738;DHT22;11536;50.860;4.286;2024-03-02T01:59:11;7.90;99.90
22738;DHT22;11536;50.860;4.286;2024-03-02T02:01:38;7.90;99.90
22738;DHT22;11536;50.860;4.286;2024-03-02T02:04:04;7.90;99.90
22738;DHT22;11536;50.860;4.286;2024-03-02T02:06:32;7.90;99.90
22738;DHT22;11536;50.860;4.286;2024-03-02T02:08:57;7.90;99.90
22738;DHT22;11536;50.860;4.286;2024-03-02T02:11:23;7.90;99.90
22738;DHT22;11536;50.860;4.286;2024-03-02T02:13:49;7.90;99.90
22738;DHT22;11536;50.860;4.286;2024-03-02T02:16:15;7.90;99.90
22738;DHT22;11536;50.860;4.286;2024-03-02T02:18:41;7.90;99.90
22738;DHT22;11536;50.860;4.286;2024-03-02T02:21:06;7.90;99.90
22738;DHT22;11536;50.860;4.286;2024-03-02T02:23:32;7.90;99.90
22738;DHT22;11536;50.860;4.286;2024-03-02T02:25:57;7.90;99.90
22738;DHT22;11536;50.860;4.286;2024-03-02T02:28:23;7.90;99.90
22738;DHT22;11536;50.860;4.286;2024-03-02T02:30:48;7.90;99.90
22738;DHT22;11536;50.860;4.286;2024-03-02T02:33:14;7.90;99.90
22738;DHT22;11536;50.860;4.286;2024-03-02T02:35:40;7.90;99.90
22738;DHT22;11536;50.860;4.286;2024-03-02T02:38:05;7.90;99.90
22738;DHT22;11536;50.860;4.286;2024-03-02T02:40:31;7.90;99.90
22738;DHT22;11536;50.860;4.286;2024-03-02T02:42:58;7.90;99.90
22738;DHT22;11536;50.860;4.286;2024-03-02T02:45:25;7.90;99.90
22738;DHT22;11536;50.860;4.286;2024-03-02T02:47:50;7.90;99.90
22738;DHT22;11536;50.860;4.286;2024-03-02T02:50:16;7.90;99.90
22738;DHT22;11536;50.860;4.286;2024-03-02T02:52:43;7.90;99.90
22738;DHT22;11536;50.860;4.286;2024-03-02T02:55:10;7.90;99.90
22738;DHT22;11536;50.860;4.286;2024-03-02T02:57:36;7.90;99.90
22738;DHT22;11536;50.860;4.286;2024-03-02T03:02:36;7.90;99.90
22738;DHT22;11536;50.860;4.286;2024-03-02T03:05:03;7.90;99.90
22738;DHT22;11536;50.860;4.286;2024-03-02T03:07:28;7.90;99.90
22738;DHT22;11536;50.860;4.286;2024-03-02T03:09:54;7.90;99.90
22738;DHT22;11536;50.860;4.286;2024-03-02T03:12:19;8.00;99.90
22738;DHT22;11536;50.860;4.286;2024-03-02T03:14:45;7.90;99.90
22738;DHT22;11536;50.860;4.286;2024-03-02T03:17:11;7.90;99.90
22738;DHT22;11536;50.860;4.286;2024-03-02T03:19:38;7.90;99.90
22738;DHT22;11536;50.860;4.286;2024-03-02T03:22:04;7.90;99.90
22738;DHT22;11536;50.860;4.286;2024-03-02T03:24:29;7.90;99.90
22738;DHT22;11536;50.860;4.286;2024-03-02T03:26:55;7.90;99.90
22738;DHT22;11536;50.860;4.286;2024-03-02T03:29:21;7.90;99.90
22738;DHT22;11536;50.860;4.286;2024-03-02T03:31:46;7.90;99.90
22738;DHT22;11536;50.860;4.286;2024-03-02T03:34:12;7.90;99.90
22738;DHT22;11536;50.860;4.286;2024-03-02T03:36:41;7.80;99.90
22738;DHT22;11536;50.860;4.286;2024-03-02T03:39:07;7.80;99.90
22738;DHT22;11536;50.860;4.286;2024-03-02T03:41:32;7.80;99.90
22738;DHT22;11536;50.860;4.286;2024-03-02T03:43:58;7.80;99.90
22738;DHT22;11536;50.860;4.286;2024-03-02T03:46:23;7.80;99.90
22738;DHT22;11536;50.860;4.286;2024-03-02T03:48:49;7.80;99.90
22738;DHT22;11536;50.860;4.286;2024-03-02T03:51:15;7.70;99.90
22738;DHT22;11536;50.860;4.286;2024-03-02T03:53:40;7.70;99.90
22738;DHT22;11536;50.860;4.286;2024-03-02T03:56:06;7.80;99.90
22738;DHT22;11536;50.860;4.286;2024-03-02T03:58:31;7.70;99.90
22738;DHT22;11536;50.860;4.286;2024-03-02T04:00:57;7.70;99.90
22738;DHT22;11536;50.860;4.286;2024-03-02T04:03:23;7.70;99.90
22738;DHT22;11536;50.860;4.286;2024-03-02T04:05:48;7.70;99.90
22738;DHT22;11536;50.860;4.286;2024-03-02T04:08:14;7.70;99.90
22738;DHT22;11536;50.860;4.286;2024-03-02T04:10:39;7.70;99.90
22738;DHT22;11536;50.860;4.286;2024-03-02T04:13:05;7.70;99.90
22738;DHT22;11536;50.860;4.286;2024-03-02T04:15:31;7.80;99.90
22738;DHT22;11536;50.860;4.286;2024-03-02T04:17:57;7.70;99.90
22738;DHT22;11536;50.860;4.286;2024-03-02T04:20:22;7.70;99.90
22738;DHT22;11536;50.860;4.286;2024-03-02T04:22:48;7.80;99.90
22738;DHT22;11536;50.860;4.286;2024-03-02T04:25:13;7.80;99.90
22738;DHT22;11536;50.860;4.286;2024-03-02T04:27:39;7.80;99.90
22738;DHT22;11536;50.860;4.286;2024-03-02T04:30:05;7.80;99.90
22738;DHT22;11536;50.860;4.286;2024-03-02T04:32:31;7.80;99.90
22738;DHT22;11536;50.860;4.286;2024-03-02T04:34:57;7.80;99.90
22738;DHT22;11536;50.860;4.286;2024-03-02T04:37:22;7.80;99.90
22738;DHT22;11536;50.860;4.286;2024-03-02T04:39:48;7.80;99.90
22738;DHT22;11536;50.860;4.286;2024-03-02T04:42:14;7.80;99.90
22738;DHT22;11536;50.860;4.286;2024-03-02T04:44:39;7.80;99.90
22738;DHT22;11536;50.860;4.286;2024-03-02T04:47:05;7.80;99.90
22738;DHT22;11536;50.860;4.286;2024-03-02T04:49:31;7.80;99.90
22738;DHT22;11536;50.860;4.286;2024-03-02T04:51:56;7.90;99.90
22738;DHT22;11536;50.860;4.286;2024-03-02T04:54:22;7.80;99.90
22738;DHT22;11536;50.860;4.286;2024-03-02T04:56:48;7.80;99.90
22738;DHT22;11536;50.860;4.286;2024-03-02T04:59:17;7.80;99.90
22738;DHT22;11536;50.860;4.286;2024-03-02T05:01:43;7.80;99.90
22738;DHT22;11536;50.860;4.286;2024-03-02T05:04:09;7.80;99.90
22738;DHT22;11536;50.860;4.286;2024-03-02T05:06:40;7.70;99.90
22738;DHT22;11536;50.860;4.286;2024-03-02T05:09:07;7.70;99.90
22738;DHT22;11536;50.860;4.286;2024-03-02T05:11:32;7.70;99.90
22738;DHT22;11536;50.860;4.286;2024-03-02T05:14:05;7.60;99.90
22738;DHT22;11536;50.860;4.286;2024-03-02T05:16:37;7.60;99.90
22738;DHT22;11536;50.860;4.286;2024-03-02T05:19:07;7.60;99.90
22738;DHT22;11536;50.860;4.286;2024-03-02T05:21:33;7.60;99.90
22738;DHT22;11536;50.860;4.286;2024-03-02T05:23:59;7.50;99.90
22738;DHT22;11536;50.860;4.286;2024-03-02T05:26:25;7.50;99.90
22738;DHT22;11536;50.860;4.286;2024-03-02T05:28:51;7.50;99.90
22738;DHT22;11536;50.860;4.286;2024-03-02T05:31:17;7.50;99.90
22738;DHT22;11536;50.860;4.286;2024-03-02T05:33:43;7.40;99.90
22738;DHT22;11536;50.860;4.286;2024-03-02T05:36:09;7.50;99.90
22738;DHT22;11536;50.860;4.286;2024-03-02T05:38:34;7.50;99.90
22738;DHT22;11536;50.860;4.286;2024-03-02T05:41:00;7.40;99.90
22738;DHT22;11536;50.860;4.286;2024-03-02T05:43:26;7.40;99.90
22738;DHT22;11536;50.860;4.286;2024-03-02T05:45:52;7.40;99.90
22738;DHT22;11536;50.860;4.286;2024-03-02T05:48:17;7.40;99.90
22738;DHT22;11536;50.860;4.286;2024-03-02T05:50:43;7.30;99.90
22738;DHT22;11536;50.860;4.286;2024-03-02T05:53:08;7.30;99.90
22738;DHT22;11536;50.860;4.286;2024-03-02T05:55:34;7.30;99.90
22738;DHT22;11536;50.860;4.286;2024-03-02T05:58:00;7.30;99.90
22738;DHT22;11536;50.860;4.286;2024-03-02T06:00:32;7.20;99.90
22738;DHT22;11536;50.860;4.286;2024-03-02T06:02:58;7.20;99.90
22738;DHT22;11536;50.860;4.286;2024-03-02T06:05:23;7.20;99.90
22738;DHT22;11536;50.860;4.286;2024-03-02T06:07:50;7.20;99.90
22738;DHT22;11536;50.860;4.286;2024-03-02T06:10:15;7.20;99.90
22738;DHT22;11536;50.860;4.286;2024-03-02T06:12:41;7.20;99.90
22738;DHT22;11536;50.860;4.286;2024-03-02T06:15:07;7.10;99.90
22738;DHT22;11536;50.860;4.286;2024-03-02T06:17:35;7.10;99.90
22738;DHT22;11536;50.860;4.286;2024-03-02T06:20:01;7.10;99.90
22738;DHT22;11536;50.860;4.286;2024-03-02T06:22:27;7.10;99.90
22738;DHT22;11536;50.860;4.286;2024-03-02T06:24:52;7.10;99.90
22738;DHT22;11536;50.860;4.286;2024-03-02T06:27:18;7.10;99.90
22738;DHT22;11536;50.860;4.286;2024-03-02T06:29:43;7.00;99.90
22738;DHT22;11536;50.860;4.286;2024-03-02T06:32:09;7.10;99.90
22738;DHT22;11536;50.860;4.286;2024-03-02T06:34:34;7.10;99.90
22738;DHT22;11536;50.860;4.286;2024-03-02T06:37:00;7.00;99.90
22738;DHT22;11536;50.860;4.286;2024-03-02T06:39:26;7.00;99.90
22738;DHT22;11536;50.860;4.286;2024-03-02T06:41:51;7.10;99.90
22738;DHT22;11536;50.860;4.286;2024-03-02T06:44:17;7.00;99.90
22738;DHT22;11536;50.860;4.286;2024-03-02T06:46:43;7.00;99.90
22738;DHT22;11536;50.860;4.286;2024-03-02T06:49:08;7.00;99.90
22738;DHT22;11536;50.860;4.286;2024-03-02T06:51:36;7.00;99.90
22738;DHT22;11536;50.860;4.286;2024-03-02T06:54:01;7.00;99.90
22738;DHT22;11536;50.860;4.286;2024-03-02T06:56:27;7.00;99.90
22738;DHT22;11536;50.860;4.286;2024-03-02T06:58:53;7.00;99.90
22738;DHT22;11536;50.860;4.286;2024-03-02T07:01:18;7.00;99.90
22738;DHT22;11536;50.860;4.286;2024-03-02T07:03:45;7.00;99.90
22738;DHT22;11536;50.860;4.286;2024-03-02T07:06:11;7.10;99.90
22738;DHT22;11536;50.860;4.286;2024-03-02T07:08:36;7.10;99.90
22738;DHT22;11536;50.860;4.286;2024-03-02T07:11:02;7.10;99.90
22738;DHT22;11536;50.860;4.286;2024-03-02T07:13:28;7.10;99.90
22738;DHT22;11536;50.860;4.286;2024-03-02T07:15:53;7.20;99.90
22738;DHT22;11536;50.860;4.286;2024-03-02T07:18:31;7.30;99.90
22738;DHT22;11536;50.860;4.286;2024-03-02T07:20:57;7.30;99.90
22738;DHT22;11536;50.860;4.286;2024-03-02T07:23:29;7.30;99.90
22738;DHT22;11536;50.860;4.286;2024-03-02T07:25:56;7.30;99.90
22738;DHT22;11536;50.860;4.286;2024-03-02T07:28:23;7.40;99.90
22738;DHT22;11536;50.860;4.286;2024-03-02T07:31:09;7.40;99.90
22738;DHT22;11536;50.860;4.286;2024-03-02T07:33:35;7.50;99.90
22738;DHT22;11536;50.860;4.286;2024-03-02T07:36:01;7.50;99.90
22738;DHT22;11536;50.860;4.286;2024-03-02T07:38:28;7.50;99.90
22738;DHT22;11536;50.860;4.286;2024-03-02T07:40:54;7.50;99.90
22738;DHT22;11536;50.860;4.286;2024-03-02T07:43:20;7.60;99.90
22738;DHT22;11536;50.860;4.286;2024-03-02T07:45:46;7.50;99.90
22738;DHT22;11536;50.860;4.286;2024-03-02T07:48:12;7.60;99.90
22738;DHT22;11536;50.860;4.286;2024-03-02T07:50:38;7.60;99.90
22738;DHT22;11536;50.860;4.286;2024-03-02T07:53:05;7.60;99.90
22738;DHT22;11536;50.860;4.286;2024-03-02T07:55:30;7.60;99.90
22738;DHT22;11536;50.860;4.286;2024-03-02T07:57:56;7.60;99.90
22738;DHT22;11536;50.860;4.286;2024-03-02T08:00:23;7.60;99.90
22738;DHT22;11536;50.860;4.286;2024-03-02T08:02:52;7.70;99.90
22738;DHT22;11536;50.860;4.286;2024-03-02T08:05:18;7.70;99.90
22738;DHT22;11536;50.860;4.286;2024-03-02T08:07:47;7.70;99.90
22738;DHT22;11536;50.860;4.286;2024-03-02T08:10:13;7.70;99.90
22738;DHT22;11536;50.860;4.286;2024-03-02T08:12:39;7.70;99.90
22738;DHT22;11536;50.860;4.286;2024-03-02T08:15:05;7.80;99.90
22738;DHT22;11536;50.860;4.286;2024-03-02T08:17:31;7.80;99.90
22738;DHT22;11536;50.860;4.286;2024-03-02T08:19:57;7.80;99.90
22738;DHT22;11536;50.860;4.286;2024-03-02T08:22:23;7.80;99.90
22738;DHT22;11536;50.860;4.286;2024-03-02T08:24:51;7.80;99.90
22738;DHT22;11536;50.860;4.286;2024-03-02T08:27:16;7.80;99.90
22738;DHT22;11536;50.860;4.286;2024-03-02T08:29:42;7.90;99.90
22738;DHT22;11536;50.860;4.286;2024-03-02T08:32:08;7.90;99.90
22738;DHT22;11536;50.860;4.286;2024-03-02T08:34:33;7.90;99.90
22738;DHT22;11536;50.860;4.286;2024-03-02T08:37:02;8.00;99.90
22738;DHT22;11536;50.860;4.286;2024-03-02T08:39:28;8.10;99.90
22738;DHT22;11536;50.860;4.286;2024-03-02T08:41:54;8.10;99.90
22738;DHT22;11536;50.860;4.286;2024-03-02T08:44:20;8.10;99.90
22738;DHT22;11536;50.860;4.286;2024-03-02T08:46:46;8.10;99.90
22738;DHT22;11536;50.860;4.286;2024-03-02T08:49:12;8.20;99.90
22738;DHT22;11536;50.860;4.286;2024-03-02T08:51:38;8.20;99.90
22738;DHT22;11536;50.860;4.286;2024-03-02T08:54:04;8.30;99.90
22738;DHT22;11536;50.860;4.286;2024-03-02T08:56:30;8.40;99.90
22738;DHT22;11536;50.860;4.286;2024-03-02T08:58:56;8.40;99.90
22738;DHT22;11536;50.860;4.286;2024-03-02T09:01:22;8.50;99.90
22738;DHT22;11536;50.860;4.286;2024-03-02T09:03:48;8.60;99.90
22738;DHT22;11536;50.860;4.286;2024-03-02T09:06:14;8.60;99.90
22738;DHT22;11536;50.860;4.286;2024-03-02T09:08:42;8.70;99.90
22738;DHT22;11536;50.860;4.286;2024-03-02T09:11:09;8.70;99.90
22738;DHT22;11536;50.860;4.286;2024-03-02T09:13:35;8.80;99.90
22738;DHT22;11536;50.860;4.286;2024-03-02T09:16:01;8.80;99.90
22738;DHT22;11536;50.860;4.286;2024-03-02T09:18:28;8.90;99.90
22738;DHT22;11536;50.860;4.286;2024-03-02T09:20:53;8.90;99.90
22738;DHT22;11536;50.860;4.286;2024-03-02T09:23:19;8.90;99.90
22738;DHT22;11536;50.860;4.286;2024-03-02T09:25:45;9.00;99.90
22738;DHT22;11536;50.860;4.286;2024-03-02T09:28:11;9.10;99.90
22738;DHT22;11536;50.860;4.286;2024-03-02T09:30:36;9.10;99.90
22738;DHT22;11536;50.860;4.286;2024-03-02T09:33:02;9.10;99.90
22738;DHT22;11536;50.860;4.286;2024-03-02T09:35:28;9.10;99.90
22738;DHT22;11536;50.860;4.286;2024-03-02T09:37:55;9.20;99.90
22738;DHT22;11536;50.860;4.286;2024-03-02T09:40:22;9.20;99.90
22738;DHT22;11536;50.860;4.286;2024-03-02T09:42:47;9.30;99.90
22738;DHT22;11536;50.860;4.286;2024-03-02T09:45:21;9.30;99.90
22738;DHT22;11536;50.860;4.286;2024-03-02T09:47:47;9.40;99.90
22738;DHT22;11536;50.860;4.286;2024-03-02T09:50:13;9.50;99.90
22738;DHT22;11536;50.860;4.286;2024-03-02T09:52:41;9.40;99.90
22738;DHT22;11536;50.860;4.286;2024-03-02T09:55:08;9.40;99.90
22738;DHT22;11536;50.860;4.286;2024-03-02T09:57:33;9.50;99.90
22738;DHT22;11536;50.860;4.286;2024-03-02T09:59:59;9.50;99.90
22738;DHT22;11536;50.860;4.286;2024-03-02T10:02:24;9.50;99.90
22738;DHT22;11536;50.860;4.286;2024-03-02T10:04:50;9.50;99.90
22738;DHT22;11536;50.860;4.286;2024-03-02T10:07:17;9.60;99.90
22738;DHT22;11536;50.860;4.286;2024-03-02T10:09:45;9.60;99.90
22738;DHT22;11536;50.860;4.286;2024-03-02T10:12:12;9.70;99.90
22738;DHT22;11536;50.860;4.286;2024-03-02T10:14:39;9.70;99.90
22738;DHT22;11536;50.860;4.286;2024-03-02T10:17:09;9.80;99.90
22738;DHT22;11536;50.860;4.286;2024-03-02T10:19:35;9.90;99.90
22738;DHT22;11536;50.860;4.286;2024-03-02T10:22:09;9.90;99.90
22738;DHT22;11536;50.860;4.286;2024-03-02T10:24:42;9.90;99.90
22738;DHT22;11536;50.860;4.286;2024-03-02T10:27:27;10.00;99.90
22738;DHT22;11536;50.860;4.286;2024-03-02T10:29:53;10.00;99.90
22738;DHT22;11536;50.860;4.286;2024-03-02T10:32:22;10.10;99.90
22738;DHT22;11536;50.860;4.286;2024-03-02T10:34:48;10.20;99.90
22738;DHT22;11536;50.860;4.286;2024-03-02T10:37:15;10.20;99.90
22738;DHT22;11536;50.860;4.286;2024-03-02T10:39:40;10.30;99.90
22738;DHT22;11536;50.860;4.286;2024-03-02T10:42:07;10.40;99.90
22738;DHT22;11536;50.860;4.286;2024-03-02T10:44:33;10.40;99.90
22738;DHT22;11536;50.860;4.286;2024-03-02T10:47:03;10.50;99.90
22738;DHT22;11536;50.860;4.286;2024-03-02T10:49:30;10.50;99.90
22738;DHT22;11536;50.860;4.286;2024-03-02T10:51:58;10.50;99.90
22738;DHT22;11536;50.860;4.286;2024-03-02T10:54:23;10.60;99.90
22738;DHT22;11536;50.860;4.286;2024-03-02T10:56:53;10.60;99.90
22738;DHT22;11536;50.860;4.286;2024-03-02T11:01:58;10.60;99.90
22738;DHT22;11536;50.860;4.286;2024-03-02T11:04:25;10.70;99.90
22738;DHT22;11536;50.860;4.286;2024-03-02T11:06:52;10.70;99.90
22738;DHT22;11536;50.860;4.286;2024-03-02T11:09:21;10.70;99.90
22738;DHT22;11536;50.860;4.286;2024-03-02T11:11:56;10.80;99.90
22738;DHT22;11536;50.860;4.286;2024-03-02T11:14:25;10.90;99.90
22738;DHT22;11536;50.860;4.286;2024-03-02T11:16:51;10.90;99.90
22738;DHT22;11536;50.860;4.286;2024-03-02T11:19:18;11.00;99.90
22738;DHT22;11536;50.860;4.286;2024-03-02T11:21:44;11.00;99.90
22738;DHT22;11536;50.860;4.286;2024-03-02T11:26:53;11.10;99.90
22738;DHT22;11536;50.860;4.286;2024-03-02T11:32:03;11.20;99.90
22738;DHT22;11536;50.860;4.286;2024-03-02T11:34:35;11.20;99.90
22738;DHT22;11536;50.860;4.286;2024-03-02T11:37:02;11.30;99.90
22738;DHT22;11536;50.860;4.286;2024-03-02T11:39:28;11.30;99.90
22738;DHT22;11536;50.860;4.286;2024-03-02T11:41:55;11.30;99.90
22738;DHT22;11536;50.860;4.286;2024-03-02T11:44:21;11.30;99.90
22738;DHT22;11536;50.860;4.286;2024-03-02T11:47:01;11.30;99.90
22738;DHT22;11536;50.860;4.286;2024-03-02T11:49:49;11.30;99.90
22738;DHT22;11536;50.860;4.286;2024-03-02T11:52:18;11.40;99.90
22738;DHT22;11536;50.860;4.286;2024-03-02T11:54:45;11.50;99.90
22738;DHT22;11536;50.860;4.286;2024-03-02T11:57:18;11.50;99.90
22738;DHT22;11536;50.860;4.286;2024-03-02T11:59:45;11.70;99.90
22738;DHT22;11536;50.860;4.286;2024-03-02T12:02:21;11.70;99.90
22738;DHT22;11536;50.860;4.286;2024-03-02T12:04:48;11.80;99.90
22738;DHT22;11536;50.860;4.286;2024-03-02T12:07:22;12.00;99.90
22738;DHT22;11536;50.860;4.286;2024-03-02T12:09:48;12.10;99.90
22738;DHT22;11536;50.860;4.286;2024-03-02T12:12:14;12.10;99.90
22738;DHT22;11536;50.860;4.286;2024-03-02T12:14:51;12.10;99.90
22738;DHT22;11536;50.860;4.286;2024-03-02T12:17:17;12.10;99.90
22738;DHT22;11536;50.860;4.286;2024-03-02T12:19:42;12.10;99.90
22738;DHT22;11536;50.860;4.286;2024-03-02T12:22:08;12.10;99.90
22738;DHT22;11536;50.860;4.286;2024-03-02T12:24:33;12.20;99.90
22738;DHT22;11536;50.860;4.286;2024-03-02T12:27:00;12.30;99.90
22738;DHT22;11536;50.860;4.286;2024-03-02T12:29:26;12.40;99.90
22738;DHT22;11536;50.860;4.286;2024-03-02T12:31:52;12.40;99.90
22738;DHT22;11536;50.860;4.286;2024-03-02T12:34:19;12.50;99.90
22738;DHT22;11536;50.860;4.286;2024-03-02T12:36:46;12.60;99.90
22738;DHT22;11536;50.860;4.286;2024-03-02T12:39:13;12.70;99.90
22738;DHT22;11536;50.860;4.286;2024-03-02T12:41:41;12.70;99.90
22738;DHT22;11536;50.860;4.286;2024-03-02T12:44:07;12.80;99.90
22738;DHT22;11536;50.860;4.286;2024-03-02T12:46:33;12.80;99.90
22738;DHT22;11536;50.860;4.286;2024-03-02T12:49:07;13.00;99.90
22738;DHT22;11536;50.860;4.286;2024-03-02T12:51:32;13.00;99.90
22738;DHT22;11536;50.860;4.286;2024-03-02T12:53:58;12.90;99.90
22738;DHT22;11536;50.860;4.286;2024-03-02T12:56:24;12.90;99.90
22738;DHT22;11536;50.860;4.286;2024-03-02T12:58:54;13.00;99.90
22738;DHT22;11536;50.860;4.286;2024-03-02T13:01:20;12.90;99.90
22738;DHT22;11536;50.860;4.286;2024-03-02T13:03:48;12.90;99.90
22738;DHT22;11536;50.860;4.286;2024-03-02T13:06:16;12.90;99.90
22738;DHT22;11536;50.860;4.286;2024-03-02T13:08:42;12.90;99.90
22738;DHT22;11536;50.860;4.286;2024-03-02T13:11:08;12.90;99.90
22738;DHT22;11536;50.860;4.286;2024-03-02T13:13:34;12.80;99.90
22738;DHT22;11536;50.860;4.286;2024-03-02T13:16:00;12.80;99.90
22738;DHT22;11536;50.860;4.286;2024-03-02T13:18:26;12.80;99.90
22738;DHT22;11536;50.860;4.286;2024-03-02T13:20:52;12.80;99.90
22738;DHT22;11536;50.860;4.286;2024-03-02T13:23:18;12.80;99.90
22738;DHT22;11536;50.860;4.286;2024-03-02T13:25:43;12.80;99.90
22738;DHT22;11536;50.860;4.286;2024-03-02T13:28:09;12.90;99.90
22738;DHT22;11536;50.860;4.286;2024-03-02T13:30:35;12.90;99.90
22738;DHT22;11536;50.860;4.286;2024-03-02T13:33:00;12.90;99.90
22738;DHT22;11536;50.860;4.286;2024-03-02T13:35:26;12.90;99.90
22738;DHT22;11536;50.860;4.286;2024-03-02T13:37:52;12.90;99.90
22738;DHT22;11536;50.860;4.286;2024-03-02T13:40:17;13.00;99.90
22738;DHT22;11536;50.860;4.286;2024-03-02T13:42:46;13.00;99.90
22738;DHT22;11536;50.860;4.286;2024-03-02T13:45:15;13.00;99.90
22738;DHT22;11536;50.860;4.286;2024-03-02T13:47:41;13.00;99.90
22738;DHT22;11536;50.860;4.286;2024-03-02T13:50:07;13.00;99.90
22738;DHT22;11536;50.860;4.286;2024-03-02T13:52:33;13.00;99.90
22738;DHT22;11536;50.860;4.286;2024-03-02T13:54:58;13.00;99.90
22738;DHT22;11536;50.860;4.286;2024-03-02T13:57:24;13.00;99.90
22738;DHT22;11536;50.860;4.286;2024-03-02T13:59:50;13.10;99.90
22738;DHT22;11536;50.860;4.286;2024-03-02T14:02:17;13.00;99.90
22738;DHT22;11536;50.860;4.286;2024-03-02T14:04:43;13.00;99.90
22738;DHT22;11536;50.860;4.286;2024-03-02T14:07:09;13.00;99.90
22738;DHT22;11536;50.860;4.286;2024-03-02T14:09:38;13.00;99.90
22738;DHT22;11536;50.860;4.286;2024-03-02T14:12:05;13.00;99.90
22738;DHT22;11536;50.860;4.286;2024-03-02T14:14:31;13.00;99.90
22738;DHT22;11536;50.860;4.286;2024-03-02T14:16:57;13.00;99.90
22738;DHT22;11536;50.860;4.286;2024-03-02T14:19:26;13.00;99.90
22738;DHT22;11536;50.860;4.286;2024-03-02T14:21:51;13.00;99.90
22738;DHT22;11536;50.860;4.286;2024-03-02T14:24:17;13.00;99.90
22738;DHT22;11536;50.860;4.286;2024-03-02T14:26:43;12.90;99.90
22738;DHT22;11536;50.860;4.286;2024-03-02T14:29:08;12.90;99.90
22738;DHT22;11536;50.860;4.286;2024-03-02T14:31:34;12.90;99.90
22738;DHT22;11536;50.860;4.286;2024-03-02T14:34:00;12.90;99.90
22738;DHT22;11536;50.860;4.286;2024-03-02T14:36:26;12.90;99.90
22738;DHT22;11536;50.860;4.286;2024-03-02T14:38:53;12.90;99.90
22738;DHT22;11536;50.860;4.286;2024-03-02T14:41:18;13.00;99.90
22738;DHT22;11536;50.860;4.286;2024-03-02T14:43:44;12.90;99.90
22738;DHT22;11536;50.860;4.286;2024-03-02T14:46:10;12.90;99.90
22738;DHT22;11536;50.860;4.286;2024-03-02T14:48:36;13.00;99.90
22738;DHT22;11536;50.860;4.286;2024-03-02T14:51:03;12.90;99.90
22738;DHT22;11536;50.860;4.286;2024-03-02T14:53:28;12.90;99.90
22738;DHT22;11536;50.860;4.286;2024-03-02T14:55:54;12.90;99.90
22738;DHT22;11536;50.860;4.286;2024-03-02T14:58:20;12.90;99.90
22738;DHT22;11536;50.860;4.286;2024-03-02T15:00:46;12.90;99.90
22738;DHT22;11536;50.860;4.286;2024-03-02T15:03:12;12.80;99.90
22738;DHT22;11536;50.860;4.286;2024-03-02T15:05:38;12.80;99.90
22738;DHT22;11536;50.860;4.286;2024-03-02T15:08:04;12.80;99.90
22738;DHT22;11536;50.860;4.286;2024-03-02T15:10:33;12.80;99.90
22738;DHT22;11536;50.860;4.286;2024-03-02T15:12:59;12.80;99.90
22738;DHT22;11536;50.860;4.286;2024-03-02T15:15:25;12.80;99.90
22738;DHT22;11536;50.860;4.286;2024-03-02T15:17:51;12.70;99.90
22738;DHT22;11536;50.860;4.286;2024-03-02T15:20:17;12.80;99.90
22738;DHT22;11536;50.860;4.286;2024-03-02T15:22:43;12.70;99.90
22738;DHT22;11536;50.860;4.286;2024-03-02T15:25:09;12.80;99.90
22738;DHT22;11536;50.860;4.286;2024-03-02T15:27:34;12.70;99.90
22738;DHT22;11536;50.860;4.286;2024-03-02T15:30:00;12.70;99.90
22738;DHT22;11536;50.860;4.286;2024-03-02T15:32:26;12.70;99.90
22738;DHT22;11536;50.860;4.286;2024-03-02T15:34:53;12.70;99.90
22738;DHT22;11536;50.860;4.286;2024-03-02T15:37:18;12.60;99.90
22738;DHT22;11536;50.860;4.286;2024-03-02T15:39:44;12.70;99.90
22738;DHT22;11536;50.860;4.286;2024-03-02T15:42:10;12.60;99.90
22738;DHT22;11536;50.860;4.286;2024-03-02T15:44:36;12.60;99.90
22738;DHT22;11536;50.860;4.286;2024-03-02T15:47:02;12.60;99.90
22738;DHT22;11536;50.860;4.286;2024-03-02T15:49:28;12.60;99.90
22738;DHT22;11536;50.860;4.286;2024-03-02T15:51:54;12.60;99.90